Time;durP1;ratioP1;P1;durP2;ratioP2;P2;SDS_P1;SDS_P2;PMS_P1;PMS_P2;Temp;Humidity;BMP_temperature;BMP_pressure;BME280_temperature;BME280_humidity;BME280_pressure;Samples;Min_cycle;Max_cycle;Signal;HPM_P1;HPM_P2
2022/08/03 00:02:24;;;;;;;3.35;1.75;;;20.60;92.40;;;;;;5034405;28;20529;-75
2022/08/03 00:04:49;;;;;;;3.15;1.77;;;20.60;92.30;;;;;;5034489;28;20033;-75
2022/08/03 00:07:15;;;;;;;2.38;1.70;;;20.70;92.30;;;;;;5034632;28;20391;-74
2022/08/03 00:09:41;;;;;;;2.63;1.80;;;20.70;92.30;;;;;;5034429;28;20021;-75
2022/08/03 00:12:07;;;;;;;2.65;1.63;;;20.70;92.20;;;;;;5016356;28;20470;-75
2022/08/03 00:14:32;;;;;;;2.15;1.40;;;20.70;92.20;;;;;;5016858;28;20025;-74
2022/08/03 00:16:58;;;;;;;2.72;1.75;;;20.70;92.20;;;;;;5034030;28;20033;-74
2022/08/03 00:19:23;;;;;;;2.63;1.60;;;20.70;92.20;;;;;;5033785;28;20040;-75
2022/08/03 00:21:49;;;;;;;2.72;1.50;;;20.70;92.30;;;;;;5033792;28;20025;-74
2022/08/03 00:24:14;;;;;;;2.47;1.70;;;20.70;92.30;;;;;;5034242;28;20394;-75
2022/08/03 00:26:40;;;;;;;2.45;1.77;;;20.60;92.30;;;;;;5033937;28;20429;-74
2022/08/03 00:29:05;;;;;;;2.10;1.50;;;20.70;92.30;;;;;;5033997;28;20529;-74
2022/08/03 00:31:31;;;;;;;2.55;1.48;;;20.70;92.40;;;;;;5014725;28;20025;-75
2022/08/03 00:33:56;;;;;;;3.30;1.90;;;20.60;92.40;;;;;;5034023;28;20088;-74
2022/08/03 00:36:22;;;;;;;2.67;1.50;;;20.70;92.40;;;;;;5033789;28;20049;-74
2022/08/03 00:38:47;;;;;;;2.40;1.70;;;20.60;92.40;;;;;;5016547;28;20018;-75
2022/08/03 00:41:13;;;;;;;3.22;1.70;;;20.60;92.40;;;;;;5033562;28;20037;-75
2022/08/03 00:43:38;;;;;;;3.30;1.77;;;20.60;92.40;;;;;;5016397;28;20018;-75
2022/08/03 00:46:04;;;;;;;2.83;1.73;;;20.60;92.40;;;;;;5033879;28;20029;-75
2022/08/03 00:48:29;;;;;;;2.42;1.60;;;20.60;92.40;;;;;;5033910;28;20025;-74
2022/08/03 00:50:55;;;;;;;2.13;1.50;;;20.60;92.50;;;;;;5033452;28;20025;-74
2022/08/03 00:53:21;;;;;;;2.47;1.60;;;20.60;92.40;;;;;;5033781;28;20057;-74
2022/08/03 00:55:47;;;;;;;3.13;1.73;;;20.70;92.40;;;;;;5033592;28;20025;-74
2022/08/03 00:58:12;;;;;;;3.03;1.80;;;20.70;92.40;;;;;;5033811;28;20504;-74
2022/08/03 01:00:39;;;;;;;2.78;1.80;;;20.70;92.30;;;;;;5015470;28;20032;-74
2022/08/03 01:03:09;;;;;;;2.65;1.67;;;20.70;92.30;;;;;;5033478;28;20064;-74
2022/08/03 01:05:45;;;;;;;2.65;1.58;;;20.70;92.30;;;;;;5033452;28;20030;-74
2022/08/03 01:08:27;;;;;;;3.28;1.50;;;20.70;92.30;;;;;;5033524;28;20108;-74
2022/08/03 01:11:08;;;;;;;2.35;1.50;;;20.70;92.30;;;;;;5015211;28;20072;-75
2022/08/03 01:13:45;;;;;;;3.10;1.63;;;20.70;92.30;;;;;;5012222;28;20485;-74
2022/08/03 01:16:21;;;;;;;2.35;1.50;;;20.70;92.30;;;;;;4995936;28;20022;-74
2022/08/03 01:18:57;;;;;;;3.05;1.63;;;20.70;92.40;;;;;;5013655;28;20064;-74
2022/08/03 01:21:51;;;;;;;2.58;1.40;;;20.60;92.40;;;;;;4995490;28;20076;-75
2022/08/03 01:24:25;;;;;;;2.60;1.67;;;20.60;92.40;;;;;;5013450;28;20025;-74
2022/08/03 01:27:09;;;;;;;2.30;1.52;;;20.60;92.40;;;;;;5013518;28;20069;-74
2022/08/03 01:29:57;;;;;;;3.63;1.73;;;20.60;92.40;;;;;;5013144;28;20726;-75
2022/08/03 01:32:35;;;;;;;2.25;1.77;;;20.60;92.50;;;;;;5012810;28;20105;-75
2022/08/03 01:35:06;;;;;;;2.35;1.63;;;20.60;92.50;;;;;;5013226;28;20061;-75
2022/08/03 01:37:42;;;;;;;2.72;1.83;;;20.60;92.50;;;;;;5013781;28;20072;-75
2022/08/03 01:40:10;;;;;;;2.38;1.50;;;20.60;92.50;;;;;;5013440;28;20115;-75
2022/08/03 01:42:36;;;;;;;2.30;1.60;;;20.60;92.50;;;;;;5012854;28;20091;-74
2022/08/03 01:45:03;;;;;;;2.58;1.70;;;20.60;92.50;;;;;;4995406;28;20021;-75
2022/08/03 01:47:30;;;;;;;2.53;1.63;;;20.60;92.40;;;;;;5012942;28;20398;-75
2022/08/03 01:49:57;;;;;;;2.35;1.50;;;20.70;92.40;;;;;;5011452;28;20394;-74
2022/08/03 01:52:24;;;;;;;2.80;1.77;;;20.70;92.40;;;;;;4995086;28;20113;-74
2022/08/03 01:54:52;;;;;;;2.55;1.85;;;20.70;92.30;;;;;;5012893;28;20083;-74
2022/08/03 01:57:18;;;;;;;2.72;1.50;;;20.70;92.30;;;;;;4995209;28;20026;-74
2022/08/03 01:59:45;;;;;;;2.17;1.50;;;20.70;92.30;;;;;;5012693;28;20125;-74
2022/08/03 02:02:12;;;;;;;2.30;1.60;;;20.70;92.40;;;;;;5011171;28;20022;-74
2022/08/03 02:04:40;;;;;;;2.53;1.60;;;20.70;92.40;;;;;;4994930;28;20533;-74
2022/08/03 02:07:06;;;;;;;2.45;1.70;;;20.60;92.40;;;;;;4994991;28;20462;-74
2022/08/03 02:09:34;;;;;;;2.33;1.70;;;20.60;92.40;;;;;;4994881;28;20104;-74
2022/08/03 02:12:00;;;;;;;3.22;1.80;;;20.60;92.50;;;;;;5012232;28;20061;-75
2022/08/03 02:14:26;;;;;;;3.60;1.75;;;20.60;92.50;;;;;;5018688;28;20013;-75
2022/08/03 02:16:54;;;;;;;3.13;1.77;;;20.60;92.50;;;;;;5014376;28;20049;-75
2022/08/03 02:19:20;;;;;;;2.70;1.80;;;20.60;92.50;;;;;;5014385;28;20061;-74
2022/08/03 02:21:47;;;;;;;2.78;1.90;;;20.60;92.60;;;;;;5031863;28;20402;-74
2022/08/03 02:24:13;;;;;;;2.67;1.67;;;20.60;92.60;;;;;;5031826;28;20104;-75
2022/08/03 02:26:40;;;;;;;2.70;1.70;;;20.60;92.60;;;;;;5031929;28;20163;-74
2022/08/03 02:29:12;;;;;;;3.03;1.80;;;20.60;92.60;;;;;;5014294;28;20021;-74
2022/08/03 02:31:39;;;;;;;2.28;1.60;;;20.60;92.60;;;;;;5013756;28;20025;-74
2022/08/03 02:34:11;;;;;;;2.67;1.85;;;20.60;92.60;;;;;;5014027;28;20026;-75
2022/08/03 02:36:39;;;;;;;3.17;1.50;;;20.60;92.50;;;;;;5031807;28;20025;-74
2022/08/03 02:39:09;;;;;;;2.70;1.70;;;20.60;92.50;;;;;;5014195;28;20115;-75
2022/08/03 02:41:41;;;;;;;2.78;1.70;;;20.70;92.50;;;;;;5031525;28;20488;-74
2022/08/03 02:44:07;;;;;;;;;;;20.70;92.40;;;;;;5032477;28;20029;-74
2022/08/03 02:46:37;;;;;;;2.30;1.70;;;20.70;92.40;;;;;;5011927;28;19912;-74
2022/08/03 02:49:03;;;;;;;2.63;1.70;;;20.70;92.30;;;;;;5041171;28;20025;-74
2022/08/03 02:51:32;;;;;;;3.45;1.60;;;20.70;92.30;;;;;;5046594;28;20037;-75
2022/08/03 02:54:00;;;;;;;2.60;1.70;;;20.70;92.40;;;;;;5033470;28;20024;-75
2022/08/03 02:56:27;;;;;;;2.55;1.70;;;20.70;92.40;;;;;;5033737;28;20043;-75
2022/08/03 02:58:53;;;;;;;3.72;1.80;;;20.60;92.40;;;;;;5043382;28;20029;-75
2022/08/03 03:01:21;;;;;;;2.42;1.50;;;20.60;92.40;;;;;;5013595;28;20453;-75
2022/08/03 03:03:49;;;;;;;2.33;1.58;;;20.60;92.40;;;;;;5031585;28;20390;-75
2022/08/03 03:06:17;;;;;;;3.72;1.92;;;20.60;92.50;;;;;;5031579;28;20026;-75
2022/08/03 03:08:42;;;;;;;2.88;1.70;;;20.60;92.60;;;;;;5031604;28;20795;-74
2022/08/03 03:11:10;;;;;;;2.38;1.67;;;20.60;92.60;;;;;;5031031;28;20104;-75
2022/08/03 03:13:35;;;;;;;3.30;2.00;;;20.60;92.60;;;;;;5024923;28;20026;-75
2022/08/03 03:16:04;;;;;;;3.00;1.80;;;20.60;92.60;;;;;;5031094;28;20025;-74
2022/08/03 03:18:31;;;;;;;3.15;1.90;;;20.60;92.60;;;;;;5032498;28;20073;-75
2022/08/03 03:20:58;;;;;;;2.58;1.80;;;20.60;92.60;;;;;;5030980;28;20068;-75
2022/08/03 03:23:25;;;;;;;2.58;1.73;;;20.60;92.60;;;;;;5013788;28;20095;-74
2022/08/03 03:25:51;;;;;;;3.03;1.70;;;20.60;92.70;;;;;;5013991;28;20029;-75
2022/08/03 03:28:17;;;;;;;2.72;1.80;;;20.60;92.60;;;;;;5013733;28;20029;-74
2022/08/03 03:30:43;;;;;;;3.22;1.85;;;20.60;92.60;;;;;;5013315;28;20075;-75
2022/08/03 03:33:09;;;;;;;1.92;1.50;;;20.60;92.50;;;;;;5031246;28;20540;-74
2022/08/03 03:35:35;;;;;;;2.70;1.63;;;20.60;92.50;;;;;;5013603;28;20033;-74
2022/08/03 03:38:00;;;;;;;2.22;1.60;;;20.70;92.40;;;;;;5031423;28;20018;-74
2022/08/03 03:40:26;;;;;;;2.38;1.50;;;20.70;92.40;;;;;;5030838;28;20088;-75
2022/08/03 03:42:52;;;;;;;2.22;1.65;;;20.70;92.40;;;;;;5031344;28;20033;-74
2022/08/03 03:45:19;;;;;;;2.90;1.60;;;20.60;92.40;;;;;;5031284;28;20108;-74
2022/08/03 03:47:45;;;;;;;2.53;1.63;;;20.60;92.40;;;;;;5013620;28;20541;-75
2022/08/03 03:50:10;;;;;;;3.03;1.88;;;20.60;92.50;;;;;;5030612;28;20061;-74
2022/08/03 03:52:36;;;;;;;2.63;1.70;;;20.60;92.50;;;;;;5031733;28;20387;-75
2022/08/03 03:55:01;;;;;;;3.75;1.77;;;20.60;92.60;;;;;;5013448;28;20021;-76
2022/08/03 03:57:28;;;;;;;2.53;1.70;;;20.60;92.60;;;;;;5031635;28;20021;-75
2022/08/03 03:59:53;;;;;;;2.92;1.70;;;20.60;92.60;;;;;;5013366;28;20032;-75
2022/08/03 04:02:19;;;;;;;3.30;2.10;;;20.60;92.60;;;;;;5030856;28;20033;-75
2022/08/03 04:13:12;;;;;;;2.67;1.80;;;20.60;92.70;;;;;;5031610;28;20029;-74
2022/08/03 04:15:39;;;;;;;1.75;1.42;;;20.60;92.70;;;;;;5012991;28;20481;-76
2022/08/03 04:18:07;;;;;;;2.00;1.50;;;20.60;92.60;;;;;;5016710;28;20029;-76
2022/08/03 04:20:36;;;;;;;3.05;1.70;;;20.60;92.60;;;;;;5006535;28;20025;-75
2022/08/03 04:23:02;;;;;;;2.45;1.60;;;20.60;92.50;;;;;;5015725;28;20493;-75
2022/08/03 04:25:31;;;;;;;2.33;1.60;;;20.60;92.50;;;;;;5035669;28;20025;-75
2022/08/03 04:28:00;;;;;;;2.22;1.50;;;20.70;92.40;;;;;;5019620;28;20060;-75
2022/08/03 04:30:27;;;;;;;2.00;1.35;;;20.70;92.40;;;;;;5033090;28;20033;-74
2022/08/03 04:32:56;;;;;;;2.75;1.73;;;20.60;92.40;;;;;;5015938;28;20172;-75
2022/08/03 04:35:27;;;;;;;2.10;1.50;;;20.60;92.40;;;;;;5033466;28;20493;-75
2022/08/03 04:37:55;;;;;;;2.55;1.60;;;20.60;92.40;;;;;;5016026;28;20025;-74
2022/08/03 04:40:33;;;;;;;2.55;1.50;;;20.60;92.50;;;;;;5032689;28;20127;-71
2022/08/03 04:42:59;;;;;;;2.83;1.70;;;20.60;92.50;;;;;;5052893;28;20429;-76
2022/08/03 04:45:26;;;;;;;2.58;1.67;;;20.60;92.60;;;;;;5047478;28;20026;-77
2022/08/03 04:47:53;;;;;;;2.42;1.60;;;20.60;92.60;;;;;;5034518;28;20171;-78
2022/08/03 04:50:19;;;;;;;2.40;1.67;;;20.60;92.60;;;;;;5046073;28;20025;-75
2022/08/03 04:52:44;;;;;;;2.20;1.60;;;20.60;92.60;;;;;;5030292;28;20106;-75
2022/08/03 04:55:10;;;;;;;3.40;1.85;;;20.50;92.70;;;;;;5015712;28;20063;-75
2022/08/03 04:57:36;;;;;;;4.57;2.20;;;20.60;92.60;;;;;;5035097;28;20025;-75
2022/08/03 05:00:02;;;;;;;4.60;2.10;;;20.60;92.50;;;;;;5052078;28;20033;-73
2022/08/03 05:02:29;;;;;;;4.93;2.28;;;20.60;92.40;;;;;;5015041;28;20048;-75
2022/08/03 05:04:55;;;;;;;3.47;1.88;;;20.60;92.30;;;;;;5032826;28;20435;-75
2022/08/03 05:07:20;;;;;;;4.28;2.28;;;20.60;92.30;;;;;;5032686;28;20076;-75
2022/08/03 05:09:46;;;;;;;3.33;1.90;;;20.60;92.30;;;;;;5015092;28;20126;-75
2022/08/03 05:12:11;;;;;;;4.13;2.00;;;20.60;92.30;;;;;;5032335;28;20398;-74
2022/08/03 05:14:38;;;;;;;4.95;2.20;;;20.60;92.20;;;;;;5017812;28;20034;-74
2022/08/03 05:17:07;;;;;;;5.68;2.20;;;20.70;92.20;;;;;;4994442;28;20045;-76
2022/08/03 05:19:33;;;;;;;3.45;2.03;;;20.70;92.10;;;;;;5012865;28;20026;-75
2022/08/03 05:21:59;;;;;;;3.50;2.03;;;20.70;92.10;;;;;;5012517;28;20032;-76
2022/08/03 05:24:25;;;;;;;3.35;1.95;;;20.70;92.10;;;;;;4995795;28;20022;-75
2022/08/03 05:26:50;;;;;;;3.17;2.00;;;20.70;92.10;;;;;;5028679;28;20032;-74
2022/08/03 05:29:15;;;;;;;4.10;1.98;;;20.70;92.10;;;;;;5012964;28;20030;-71
2022/08/03 05:31:41;;;;;;;5.90;2.35;;;20.70;92.10;;;;;;5012951;28;20030;-75
2022/08/03 05:34:07;;;;;;;4.43;2.28;;;20.70;92.00;;;;;;5013876;28;20029;-75
2022/08/03 05:36:32;;;;;;;4.32;1.98;;;20.70;92.00;;;;;;5030325;28;20121;-74
2022/08/03 05:38:58;;;;;;;3.30;1.95;;;20.70;92.10;;;;;;5030094;28;20121;-74
2022/08/03 05:41:23;;;;;;;6.20;2.17;;;20.60;92.10;;;;;;5029944;28;20032;-74
2022/08/03 05:43:50;;;;;;;4.10;2.20;;;20.70;92.10;;;;;;5030933;28;20085;-75
2022/08/03 05:46:16;;;;;;;4.05;2.10;;;20.60;92.10;;;;;;5012906;28;20071;-74
2022/08/03 05:48:42;;;;;;;5.18;2.10;;;20.70;92.10;;;;;;5013189;28;20025;-75
2022/08/03 05:51:09;;;;;;;3.92;2.20;;;20.70;92.10;;;;;;5012582;28;20032;-74
2022/08/03 05:53:35;;;;;;;6.65;2.53;;;20.70;92.10;;;;;;5031679;28;20018;-74
2022/08/03 05:56:01;;;;;;;4.03;2.08;;;20.70;92.10;;;;;;5032208;28;20032;-74
2022/08/03 05:58:27;;;;;;;4.10;2.20;;;20.70;92.10;;;;;;5032008;28;20034;-75
2022/08/03 06:00:52;;;;;;;4.72;2.47;;;20.70;92.10;;;;;;5014370;28;20021;-75
2022/08/03 06:03:18;;;;;;;4.47;2.00;;;20.70;92.00;;;;;;5031925;28;20033;-75
2022/08/03 06:05:44;;;;;;;3.85;2.30;;;20.80;92.00;;;;;;5032098;28;20025;-75
2022/08/03 06:08:10;;;;;;;5.25;2.10;;;20.80;91.90;;;;;;5015099;28;20025;-75
2022/08/03 06:10:35;;;;;;;5.35;2.20;;;20.80;91.80;;;;;;5032369;28;20517;-75
2022/08/03 06:13:01;;;;;;;5.13;2.00;;;20.80;91.80;;;;;;5032001;28;20108;-75
2022/08/03 06:15:26;;;;;;;4.38;2.30;;;20.80;91.80;;;;;;5014181;28;20029;-75
2022/08/03 06:17:52;;;;;;;5.68;2.38;;;20.80;92.00;;;;;;5031862;28;20056;-73
2022/08/03 06:20:19;;;;;;;4.97;2.10;;;20.80;91.80;;;;;;5013740;28;20030;-74
2022/08/03 06:22:45;;;;;;;3.13;2.10;;;20.80;91.90;;;;;;5031820;28;20056;-74
2022/08/03 06:25:11;;;;;;;3.95;2.00;;;20.80;91.90;;;;;;5031834;28;20068;-74
2022/08/03 06:27:38;;;;;;;3.90;2.10;;;20.70;91.90;;;;;;5031105;28;20451;-74
2022/08/03 06:30:06;;;;;;;3.75;2.10;;;20.80;91.90;;;;;;5013341;28;20401;-74
2022/08/03 06:32:32;;;;;;;5.10;2.30;;;20.80;92.00;;;;;;5013634;28;20482;-74
2022/08/03 06:34:58;;;;;;;4.68;2.25;;;20.80;91.90;;;;;;5031669;28;20398;-74
2022/08/03 06:37:25;;;;;;;3.92;2.10;;;20.80;91.90;;;;;;5031431;28;20036;-74
2022/08/03 06:39:51;;;;;;;4.05;2.10;;;20.80;91.90;;;;;;5031579;28;20021;-74
2022/08/03 06:42:17;;;;;;;4.10;2.25;;;20.80;91.80;;;;;;5013135;28;20406;-74
2022/08/03 06:44:42;;;;;;;3.17;2.20;;;20.80;91.80;;;;;;5013851;28;20022;-74
2022/08/03 06:47:08;;;;;;;4.88;2.20;;;20.80;91.80;;;;;;5031442;28;20559;-76
2022/08/03 06:49:33;;;;;;;4.72;2.15;;;20.90;91.90;;;;;;5031389;28;20021;-74
2022/08/03 06:51:59;;;;;;;4.45;2.22;;;20.90;91.80;;;;;;5013200;28;20026;-75
2022/08/03 06:54:24;;;;;;;4.75;2.10;;;20.90;91.70;;;;;;5031322;28;20095;-75
2022/08/03 06:56:50;;;;;;;3.53;2.17;;;21.00;91.60;;;;;;5013660;28;20025;-75
2022/08/03 06:59:16;;;;;;;4.25;2.17;;;21.00;91.50;;;;;;5031341;28;20029;-74
2022/08/03 07:01:41;;;;;;;2.72;1.90;;;21.10;91.40;;;;;;5030788;28;20021;-74
2022/08/03 07:04:07;;;;;;;3.05;2.00;;;21.10;91.30;;;;;;5013503;28;20041;-75
2022/08/03 07:06:33;;;;;;;4.90;2.22;;;21.10;91.30;;;;;;5031261;28;20029;-74
2022/08/03 07:08:58;;;;;;;4.35;2.28;;;21.10;91.40;;;;;;5013525;28;20048;-74
2022/08/03 07:11:24;;;;;;;3.50;2.03;;;21.10;91.40;;;;;;5030609;28;20395;-74
2022/08/03 07:13:49;;;;;;;3.45;1.98;;;21.10;91.40;;;;;;5031257;28;20449;-74
2022/08/03 07:16:15;;;;;;;4.95;2.10;;;21.00;91.40;;;;;;5031073;28;20025;-75
2022/08/03 07:18:41;;;;;;;3.20;2.10;;;21.10;91.40;;;;;;5013393;28;20022;-74
2022/08/03 07:21:08;;;;;;;4.63;2.10;;;21.00;91.50;;;;;;5013036;28;20383;-74
2022/08/03 07:23:33;;;;;;;3.88;2.13;;;21.00;91.50;;;;;;5030947;28;20029;-74
2022/08/03 07:25:59;;;;;;;3.53;1.90;;;21.00;91.50;;;;;;5013509;28;20022;-74
2022/08/03 07:28:24;;;;;;;3.97;1.90;;;21.10;91.60;;;;;;5031071;28;20509;-75
2022/08/03 07:30:50;;;;;;;5.35;2.42;;;21.10;91.50;;;;;;5030625;28;20170;-74
2022/08/03 07:33:15;;;;;;;4.68;2.20;;;21.10;91.40;;;;;;5030889;28;20395;-74
2022/08/03 07:35:41;;;;;;;3.95;2.20;;;21.10;91.40;;;;;;5013367;28;20029;-74
2022/08/03 07:38:06;;;;;;;3.60;2.00;;;21.10;91.40;;;;;;5031040;28;20030;-74
2022/08/03 07:40:32;;;;;;;4.20;2.25;;;21.20;91.40;;;;;;5032978;28;20025;-74
2022/08/03 07:42:58;;;;;;;4.35;2.40;;;21.20;91.40;;;;;;5034638;28;20035;-75
2022/08/03 07:45:25;;;;;;;3.15;1.80;;;21.30;91.30;;;;;;5017030;28;20029;-75
2022/08/03 07:47:51;;;;;;;4.90;2.10;;;21.20;91.20;;;;;;5034554;28;20474;-74
2022/08/03 07:50:16;;;;;;;3.28;2.00;;;21.30;91.10;;;;;;5034436;28;20119;-75
2022/08/03 07:52:48;;;;;;;3.90;2.10;;;21.30;91.00;;;;;;5016923;28;20105;-75
2022/08/03 07:55:15;;;;;;;3.55;2.35;;;21.40;90.90;;;;;;5034522;28;20017;-75
2022/08/03 07:57:40;;;;;;;3.88;2.08;;;21.40;90.90;;;;;;5034292;28;20105;-75
2022/08/03 08:00:12;;;;;;;3.60;2.17;;;21.40;91.00;;;;;;5016274;28;20165;-75
2022/08/03 08:02:38;;;;;;;3.75;2.47;;;21.40;90.90;;;;;;5016617;28;20039;-74
2022/08/03 08:05:04;;;;;;;3.35;2.20;;;21.40;91.00;;;;;;5034210;28;20029;-75
2022/08/03 08:07:30;;;;;;;3.92;2.25;;;21.40;91.00;;;;;;5034116;28;20401;-74
2022/08/03 08:09:55;;;;;;;4.60;2.40;;;21.40;91.00;;;;;;5033235;28;20029;-75
2022/08/03 08:12:21;;;;;;;4.60;2.60;;;21.40;90.90;;;;;;5029196;28;20494;-74
2022/08/03 08:14:46;;;;;;;3.72;2.40;;;21.40;90.90;;;;;;5032238;28;20477;-74
2022/08/03 08:17:12;;;;;;;4.47;2.60;;;21.40;90.90;;;;;;5003737;28;20109;-74
2022/08/03 08:19:38;;;;;;;4.18;2.17;;;21.50;90.90;;;;;;5010603;28;20380;-74
2022/08/03 08:22:05;;;;;;;4.78;2.40;;;21.50;90.90;;;;;;5033947;28;20021;-75
2022/08/03 08:24:32;;;;;;;3.70;2.20;;;21.50;90.90;;;;;;5016101;28;20593;-75
2022/08/03 08:26:58;;;;;;;3.78;2.20;;;21.50;90.90;;;;;;5033094;28;20401;-74
2022/08/03 08:29:24;;;;;;;3.90;2.47;;;21.50;91.00;;;;;;5033263;28;20067;-75
2022/08/03 08:31:50;;;;;;;3.83;2.35;;;21.60;91.00;;;;;;5014536;28;20037;-74
2022/08/03 08:34:15;;;;;;;4.40;2.40;;;21.60;90.90;;;;;;5042513;28;20025;-74
2022/08/03 08:36:41;;;;;;;3.67;2.30;;;21.60;90.80;;;;;;5035752;28;20033;-74
2022/08/03 08:39:06;;;;;;;4.25;2.45;;;21.70;90.70;;;;;;5033336;28;20084;-74
2022/08/03 08:41:35;;;;;;;3.38;2.22;;;21.70;90.60;;;;;;5014971;28;20052;-74
2022/08/03 08:44:01;;;;;;;3.75;2.30;;;21.70;90.60;;;;;;5029008;28;20441;-78
2022/08/03 08:46:31;;;;;;;3.70;2.45;;;21.70;90.50;;;;;;5012899;28;20510;-75
2022/08/03 08:48:58;;;;;;;3.72;2.20;;;21.70;90.50;;;;;;5031965;28;20037;-75
2022/08/03 08:51:29;;;;;;;4.55;2.35;;;21.70;90.50;;;;;;5030843;28;20037;-75
2022/08/03 08:53:56;;;;;;;4.25;2.30;;;21.70;90.50;;;;;;5013940;28;20063;-75
2022/08/03 08:56:24;;;;;;;4.18;2.58;;;21.70;90.50;;;;;;5015149;28;20029;-74
2022/08/03 08:58:56;;;;;;;4.72;2.80;;;21.70;90.60;;;;;;5033284;28;20071;-75
2022/08/03 09:01:22;;;;;;;4.63;2.47;;;21.70;90.60;;;;;;5032853;28;20029;-75
2022/08/03 09:03:48;;;;;;;6.00;2.30;;;21.70;90.60;;;;;;5033313;28;20406;-74
2022/08/03 09:06:16;;;;;;;4.97;2.80;;;21.70;90.60;;;;;;5033258;28;20375;-75
2022/08/03 09:08:42;;;;;;;5.95;2.58;;;21.70;90.60;;;;;;5015760;28;20183;-74
2022/08/03 09:11:08;;;;;;;5.07;2.60;;;21.70;90.60;;;;;;5014968;28;20116;-74
2022/08/03 09:13:34;;;;;;;5.13;2.83;;;21.80;90.60;;;;;;5015189;28;20032;-75
2022/08/03 09:16:15;;;;;;;5.97;2.85;;;21.80;90.60;;;;;;5033014;28;20021;-75
2022/08/03 09:18:50;;;;;;;4.68;2.60;;;21.80;90.60;;;;;;5016699;28;20032;-74
2022/08/03 09:21:25;;;;;;;5.10;2.65;;;21.80;90.50;;;;;;5014663;28;20026;-75
2022/08/03 09:23:55;;;;;;;4.85;2.50;;;21.80;90.60;;;;;;5014960;28;20103;-74
2022/08/03 09:26:25;;;;;;;4.05;2.40;;;21.80;90.50;;;;;;5015002;28;20029;-74
2022/08/03 09:29:00;;;;;;;3.70;2.37;;;21.90;90.50;;;;;;5015154;28;20025;-75
2022/08/03 09:31:35;;;;;;;4.22;2.60;;;21.90;90.40;;;;;;5014546;28;20171;-75
2022/08/03 09:34:06;;;;;;;5.07;2.95;;;21.90;90.40;;;;;;5032861;28;20024;-75
2022/08/03 09:36:37;;;;;;;4.53;2.58;;;21.90;90.40;;;;;;5032499;28;20021;-74
2022/08/03 09:39:05;;;;;;;4.25;2.33;;;21.90;90.40;;;;;;5014852;28;20505;-75
2022/08/03 09:41:32;;;;;;;5.35;2.60;;;21.90;90.40;;;;;;5014466;28;20029;-75
2022/08/03 09:43:57;;;;;;;4.45;2.60;;;21.80;90.50;;;;;;5032553;28;20026;-74
2022/08/03 09:46:23;;;;;;;4.25;2.47;;;21.80;90.50;;;;;;5032168;28;20040;-75
2022/08/03 09:48:48;;;;;;;3.63;2.03;;;21.80;90.50;;;;;;5014827;28;20520;-74
2022/08/03 09:51:17;;;;;;;3.78;2.40;;;21.80;90.60;;;;;;5031846;28;20053;-75
2022/08/03 09:53:46;;;;;;;5.05;2.40;;;21.80;90.60;;;;;;5032336;28;20027;-74
2022/08/03 09:56:12;;;;;;;4.07;2.22;;;21.70;90.60;;;;;;5032317;28;20557;-74
2022/08/03 09:58:46;;;;;;;4.35;2.22;;;21.70;90.70;;;;;;5032268;28;20022;-75
2022/08/03 10:01:11;;;;;;;3.20;2.08;;;21.70;90.70;;;;;;5031823;28;20049;-75
2022/08/03 10:03:39;;;;;;;3.42;2.05;;;21.80;90.80;;;;;;5031977;28;20052;-74
2022/08/03 10:06:18;;;;;;;3.40;2.13;;;21.70;90.70;;;;;;5032161;28;20029;-74
2022/08/03 10:09:03;;;;;;;3.95;2.30;;;21.80;90.80;;;;;;5032101;28;20035;-74
2022/08/03 10:11:31;;;;;;;5.22;2.25;;;21.80;90.70;;;;;;5013682;28;20025;-74
2022/08/03 10:13:56;;;;;;;3.25;2.00;;;21.90;90.70;;;;;;5032049;28;20014;-74
2022/08/03 10:16:22;;;;;;;3.35;2.15;;;21.80;90.60;;;;;;5032092;28;20072;-74
2022/08/03 10:18:48;;;;;;;4.18;2.40;;;21.90;90.60;;;;;;5031900;28;20075;-74
2022/08/03 10:21:18;;;;;;;2.97;2.00;;;21.90;90.50;;;;;;5013919;28;20061;-74
2022/08/03 10:23:45;;;;;;;3.95;2.30;;;21.90;90.40;;;;;;5031959;28;20036;-74
2022/08/03 10:26:15;;;;;;;4.47;2.00;;;22.00;90.40;;;;;;5031747;28;20022;-75
2022/08/03 10:28:48;;;;;;;4.97;2.20;;;21.90;90.40;;;;;;5031613;28;20025;-75
2022/08/03 10:31:15;;;;;;;3.50;2.10;;;21.90;90.40;;;;;;5014347;28;20029;-75
2022/08/03 10:33:43;;;;;;;3.17;2.13;;;21.90;90.50;;;;;;5032565;28;20017;-75
2022/08/03 10:36:12;;;;;;;3.78;2.20;;;21.90;90.50;;;;;;5031715;28;20025;-75
2022/08/03 10:38:45;;;;;;;4.70;1.92;;;21.90;90.50;;;;;;5013730;28;20656;-75
2022/08/03 10:41:12;;;;;;;2.95;1.90;;;21.90;90.50;;;;;;5031533;28;20159;-74
2022/08/03 10:43:47;;;;;;;2.72;1.95;;;21.90;90.60;;;;;;5031500;28;20049;-75
2022/08/03 10:46:15;;;;;;;3.92;2.13;;;21.90;90.60;;;;;;5013784;28;20026;-75
2022/08/03 10:48:41;;;;;;;2.40;1.70;;;21.90;90.60;;;;;;5031226;28;20025;-74
2022/08/03 10:51:07;;;;;;;3.40;2.00;;;21.90;90.60;;;;;;5030959;28;20032;-75
2022/08/03 10:53:35;;;;;;;3.22;2.10;;;21.80;90.60;;;;;;5031186;28;20017;-74
2022/08/03 10:58:52;;;;;;;3.05;1.80;;;21.80;90.70;;;;;;5031382;28;20117;-75
2022/08/03 11:01:38;;;;;;;3.40;2.03;;;21.80;90.60;;;;;;5013141;28;20025;-75
2022/08/03 11:04:03;;;;;;;3.33;1.80;;;21.90;90.70;;;;;;5013539;28;20519;-75
2022/08/03 11:06:29;;;;;;;3.63;1.85;;;21.90;90.60;;;;;;5013462;28;20068;-75
2022/08/03 11:09:09;;;;;;;2.92;1.83;;;21.90;90.50;;;;;;5013513;28;20120;-75
2022/08/03 11:11:39;;;;;;;2.88;2.00;;;22.00;90.40;;;;;;5030625;28;20099;-74
2022/08/03 11:14:07;;;;;;;3.25;2.00;;;22.00;90.40;;;;;;5013617;28;20510;-75
2022/08/03 11:16:39;;;;;;;3.40;1.90;;;22.00;90.30;;;;;;5035169;28;20067;-75
2022/08/03 11:19:08;;;;;;;3.63;1.73;;;22.00;90.30;;;;;;5017336;28;20017;-75
2022/08/03 11:21:51;;;;;;;3.05;1.90;;;22.00;90.30;;;;;;5017107;28;20095;-75
2022/08/03 11:24:35;;;;;;;3.63;2.00;;;22.00;90.30;;;;;;5017267;28;20022;-75
2022/08/03 11:27:24;;;;;;;2.88;1.65;;;22.00;90.30;;;;;;5035205;28;20068;-75
2022/08/03 11:30:17;;;;;;;3.08;1.70;;;22.00;90.40;;;;;;5035000;28;20080;-75
2022/08/03 11:32:42;;;;;;;2.67;1.75;;;22.00;90.40;;;;;;5017257;28;20052;-75
2022/08/03 11:35:12;;;;;;;3.00;2.03;;;22.00;90.50;;;;;;5017125;28;20072;-75
2022/08/03 11:38:01;;;;;;;3.08;1.90;;;22.00;90.50;;;;;;5017154;28;20136;-75
2022/08/03 11:40:34;;;;;;;2.30;1.80;;;22.00;90.50;;;;;;5022423;28;20047;-75
2022/08/03 11:43:00;;;;;;;3.15;1.80;;;22.00;90.50;;;;;;5034733;28;20018;-74
2022/08/03 11:45:25;;;;;;;3.10;1.88;;;21.90;90.50;;;;;;5032373;28;20025;-75
2022/08/03 11:47:53;;;;;;;3.17;1.70;;;21.90;90.50;;;;;;5034047;28;20024;-75
2022/08/03 11:50:20;;;;;;;3.40;1.95;;;22.00;90.70;;;;;;5015715;28;20284;-75
2022/08/03 11:52:46;;;;;;;3.35;1.83;;;22.00;90.60;;;;;;5016830;28;20028;-75
2022/08/03 11:55:14;;;;;;;3.78;1.90;;;22.00;90.50;;;;;;5033760;28;20048;-74
2022/08/03 11:57:40;;;;;;;2.67;1.80;;;22.00;90.50;;;;;;5034374;28;20486;-74
2022/08/03 12:00:20;;;;;;;2.50;1.50;;;22.00;90.40;;;;;;5016377;28;20078;-74
2022/08/03 12:03:08;;;;;;;2.67;1.70;;;22.10;90.40;;;;;;5016887;28;20104;-74
2022/08/03 12:05:41;;;;;;;3.08;1.88;;;22.00;90.30;;;;;;5016700;28;20129;-75
2022/08/03 12:08:08;;;;;;;2.72;1.80;;;22.00;90.30;;;;;;5034364;28;20056;-74
2022/08/03 12:10:34;;;;;;;2.83;1.67;;;22.00;90.30;;;;;;5033713;28;20072;-76
2022/08/03 12:13:04;;;;;;;2.70;1.70;;;22.00;90.30;;;;;;5034251;28;20017;-75
2022/08/03 12:15:34;;;;;;;2.55;1.45;;;22.00;90.40;;;;;;5016822;28;20033;-74
2022/08/03 12:18:02;;;;;;;2.83;2.00;;;22.00;90.60;;;;;;5034214;28;20014;-75
2022/08/03 12:20:30;;;;;;;2.72;1.63;;;21.90;90.40;;;;;;5033614;28;20512;-74
2022/08/03 12:23:05;;;;;;;3.30;1.80;;;21.90;90.40;;;;;;5034109;28;20057;-74
2022/08/03 12:25:32;;;;;;;2.63;1.80;;;21.90;90.70;;;;;;5033340;28;20486;-75
2022/08/03 12:28:22;;;;;;;2.55;1.67;;;21.90;90.50;;;;;;5033437;28;20040;-75
2022/08/03 12:30:49;;;;;;;3.23;1.80;;;21.90;90.60;;;;;;5015610;28;20510;-75
2022/08/03 12:33:18;;;;;;;3.13;1.80;;;21.90;90.60;;;;;;5033863;28;20261;-75
2022/08/03 12:35:47;;;;;;;3.67;1.70;;;21.80;90.60;;;;;;5016036;28;20025;-74
2022/08/03 12:38:19;;;;;;;4.45;2.00;;;21.80;90.70;;;;;;5015947;28;20026;-75
2022/08/03 12:40:46;;;;;;;3.25;1.80;;;21.80;90.70;;;;;;5016581;28;20033;-75
2022/08/03 12:43:13;;;;;;;2.80;1.73;;;21.80;90.70;;;;;;5033709;28;20490;-75
2022/08/03 12:45:39;;;;;;;3.35;1.70;;;21.80;90.70;;;;;;5033557;28;20113;-75
2022/08/03 12:48:09;;;;;;;3.22;1.60;;;21.80;90.60;;;;;;5015921;28;20522;-75
2022/08/03 12:50:36;;;;;;;2.50;1.60;;;21.90;90.60;;;;;;5033142;28;20032;-75
2022/08/03 12:53:05;;;;;;;2.83;1.70;;;21.90;90.50;;;;;;5033606;28;20026;-75
2022/08/03 12:55:32;;;;;;;3.08;1.70;;;21.90;90.50;;;;;;5033340;28;20021;-75
2022/08/03 12:57:59;;;;;;;2.67;1.60;;;21.90;90.40;;;;;;5015706;28;20029;-75
2022/08/03 13:00:26;;;;;;;2.38;1.65;;;21.90;90.50;;;;;;5032794;28;20030;-76
2022/08/03 13:03:04;;;;;;;2.75;1.70;;;21.90;90.60;;;;;;5015809;28;20540;-75
2022/08/03 13:05:30;;;;;;;3.08;1.98;;;21.80;90.60;;;;;;5015374;28;20071;-74